Time,TemperatureF,DewpointF,PressureIn,WindDirection,WindDirectionDegrees,WindSpeedMPH,WindSpeedGustMPH,Humidity,HourlyPrecipIn,Conditions,Clouds,dailyrainin,SoftwareType,DateUTC
2013-02-25 00:00:00,33.7,31.4,30.03,North,350,3.0,3.0,91,0.00,,,0.00,VWS V13.01,2013-02-25 05:00:00,
2013-02-25 00:05:00,35.0,32.1,30.02,North,350,3.0,3.0,89,0.00,,,0.00,VWS V13.01,2013-02-25 05:05:00,
2013-02-25 00:30:00,33.1,31.0,30.05,North,350,3.0,3.0,92,0.00,,,0.00,VWS V13.01,2013-02-25 05:30:00,
2013-02-25 00:35:00,34.3,31.7,30.03,North,350,3.0,3.0,90,0.00,,,0.00,VWS V13.01,2013-02-25 05:35:00,
2013-02-25 01:00:00,36.9,29.1,30.05,North,350,3.0,3.0,73,0.00,,,0.00,VWS V13.01,2013-02-25 06:00:00,
2013-02-25 01:05:00,33.7,31.4,30.03,North,350,3.0,3.0,91,0.00,,,0.00,VWS V13.01,2013-02-25 06:05:00,
2013-02-25 01:30:00,38.6,29.0,30.06,North,350,3.0,3.0,68,0.00,,,0.00,VWS V13.01,2013-02-25 06:30:00,
2013-02-25 01:35:00,33.1,31.0,30.05,North,350,3.0,3.0,92,0.00,,,0.00,VWS V13.01,2013-02-25 06:35:00,
2013-02-25 02:00:00,37.8,27.5,30.07,North,350,3.0,3.0,66,0.00,,,0.00,VWS V13.01,2013-02-25 07:00:00,
2013-02-25 02:05:00,36.9,29.1,30.05,North,350,3.0,3.0,73,0.00,,,0.00,VWS V13.01,2013-02-25 07:05:00,
2013-02-25 02:30:00,36.8,26.9,30.05,North,350,3.0,3.0,67,0.00,,,0.00,VWS V13.01,2013-02-25 07:30:00,
2013-02-25 02:35:00,38.6,29.0,30.06,North,350,3.0,3.0,68,0.00,,,0.00,VWS V13.01,2013-02-25 07:35:00,
2013-02-25 03:00:00,36.0,26.1,30.07,North,350,3.0,3.0,67,0.00,,,0.00,VWS V13.01,2013-02-25 08:00:00,
2013-02-25 03:05:00,37.8,27.5,30.07,North,350,3.0,3.0,66,0.00,,,0.00,VWS V13.01,2013-02-25 08:05:00,
2013-02-25 03:30:00,35.5,25.3,30.10,North,350,3.0,3.0,66,0.00,,,0.00,VWS V13.01,2013-02-25 08:30:00,
2013-02-25 03:35:00,36.8,26.9,30.05,North,350,3.0,3.0,67,0.00,,,0.00,VWS V13.01,2013-02-25 08:35:00,
2013-02-25 04:00:00,34.7,24.9,30.10,North,350,3.0,3.0,67,0.00,,,0.00,VWS V13.01,2013-02-25 09:00:00,
2013-02-25 04:05:00,36.0,26.1,30.07,North,350,3.0,3.0,67,0.00,,,0.00,VWS V13.01,2013-02-25 09:05:00,
2013-02-25 04:30:00,34.4,24.6,30.11,North,350,3.0,3.0,67,0.00,,,0.00,VWS V13.01,2013-02-25 09:30:00,
2013-02-25 04:35:00,35.5,25.3,30.10,North,350,3.0,3.0,66,0.00,,,0.00,VWS V13.01,2013-02-25 09:35:00,
2013-02-25 05:00:00,34.1,23.6,30.12,North,350,3.0,3.0,65,0.00,,,0.00,VWS V13.01,2013-02-25 10:00:00,
2013-02-25 05:05:00,34.7,24.9,30.10,North,350,3.0,3.0,67,0.00,,,0.00,VWS V13.01,2013-02-25 10:05:00,
2013-02-25 05:30:00,33.7,23.2,30.13,North,350,3.0,3.0,65,0.00,,,0.00,VWS V13.01,2013-02-25 10:30:00,
2013-02-25 05:35:00,34.4,24.6,30.11,North,350,3.0,3.0,67,0.00,,,0.00,VWS V13.01,2013-02-25 10:35:00,
2013-02-25 06:00:00,33.5,22.6,30.14,North,350,3.0,3.0,64,0.00,,,0.00,VWS V13.01,2013-02-25 11:00:00,
2013-02-25 06:05:00,34.1,23.6,30.12,North,350,3.0,3.0,65,0.00,,,0.00,VWS V13.01,2013-02-25 11:05:00,
2013-02-25 06:30:00,33.7,20.9,30.15,North,350,3.0,3.0,59,0.00,,,0.00,VWS V13.01,2013-02-25 11:30:00,
2013-02-25 06:35:00,33.7,23.2,30.13,North,350,3.0,3.0,65,0.00,,,0.00,VWS V13.01,2013-02-25 11:35:00,
2013-02-25 07:00:00,34.1,21.7,30.17,North,350,3.0,3.0,60,0.00,,,0.00,VWS V13.01,2013-02-25 12:00:00,
2013-02-25 07:05:00,33.5,22.6,30.14,North,350,3.0,3.0,64,0.00,,,0.00,VWS V13.01,2013-02-25 12:05:00,
2013-02-25 07:30:00,34.9,22.4,30.19,North,350,3.0,3.0,60,0.00,,,0.00,VWS V13.01,2013-02-25 12:30:00,
2013-02-25 07:35:00,33.7,20.9,30.15,North,350,3.0,3.0,59,0.00,,,0.00,VWS V13.01,2013-02-25 12:35:00,
2013-02-25 08:00:00,35.8,21.2,30.18,North,350,3.0,3.0,55,0.00,,,0.00,VWS V13.01,2013-02-25 13:00:00,
2013-02-25 08:05:00,34.1,21.7,30.17,North,350,3.0,3.0,60,0.00,,,0.00,VWS V13.01,2013-02-25 13:05:00,
2013-02-25 08:30:00,36.8,21.3,30.20,North,350,3.0,3.0,53,0.00,,,0.00,VWS V13.01,2013-02-25 13:30:00,
2013-02-25 08:35:00,34.9,22.4,30.19,North,350,3.0,3.0,60,0.00,,,0.00,VWS V13.01,2013-02-25 13:35:00,
2013-02-25 09:00:00,37.6,22.0,30.21,North,350,3.0,3.0,53,0.00,,,0.00,VWS V13.01,2013-02-25 14:00:00,
2013-02-25 09:05:00,35.8,21.2,30.18,North,350,3.0,3.0,55,0.00,,,0.00,VWS V13.01,2013-02-25 14:05:00,
2013-02-25 09:30:00,39.3,21.3,30.20,North,350,3.0,3.0,48,0.00,,,0.00,VWS V13.01,2013-02-25 14:30:00,
2013-02-25 09:35:00,36.8,21.3,30.20,North,350,3.0,3.0,53,0.00,,,0.00,VWS V13.01,2013-02-25 14:35:00,
2013-02-25 10:00:00,40.2,21.6,30.19,North,350,3.0,3.0,47,0.00,,,0.00,VWS V13.01,2013-02-25 15:00:00,
2013-02-25 10:05:00,37.6,22.0,30.21,North,350,3.0,3.0,53,0.00,,,0.00,VWS V13.01,2013-02-25 15:05:00,
2013-02-25 10:30:00,40.6,23.4,30.19,North,350,3.0,3.0,50,0.00,,,0.00,VWS V13.01,2013-02-25 15:30:00,
2013-02-25 10:35:00,39.3,21.3,30.20,North,350,3.0,3.0,48,0.00,,,0.00,VWS V13.01,2013-02-25 15:35:00,
2013-02-25 11:00:00,41.1,22.9,30.18,North,350,3.0,3.0,48,0.00,,,0.00,VWS V13.01,2013-02-25 16:00:00,
2013-02-25 11:05:00,40.2,21.6,30.19,North,350,3.0,3.0,47,0.00,,,0.00,VWS V13.01,2013-02-25 16:05:00,
2013-02-25 11:30:00,41.8,21.5,30.17,North,350,3.0,3.0,44,0.00,,,0.00,VWS V13.01,2013-02-25 16:30:00,
2013-02-25 11:35:00,40.6,23.4,30.19,North,350,3.0,3.0,50,0.00,,,0.00,VWS V13.01,2013-02-25 16:35:00,
2013-02-25 12:00:00,42.2,22.4,30.15,North,350,3.0,3.0,45,0.00,,,0.00,VWS V13.01,2013-02-25 17:00:00,
2013-02-25 12:05:00,41.1,22.9,30.18,North,350,3.0,3.0,48,0.00,,,0.00,VWS V13.01,2013-02-25 17:05:00,
2013-02-25 12:30:00,42.5,23.2,30.16,North,350,3.0,3.0,46,0.00,,,0.00,VWS V13.01,2013-02-25 17:30:00,
2013-02-25 12:35:00,41.8,21.5,30.17,North,350,3.0,3.0,44,0.00,,,0.00,VWS V13.01,2013-02-25 17:35:00,
2013-02-25 13:00:00,42.2,23.4,30.16,North,350,3.0,3.0,47,0.00,,,0.00,VWS V13.01,2013-02-25 18:00:00,
2013-02-25 13:05:00,42.2,22.4,30.15,North,350,3.0,3.0,45,0.00,,,0.00,VWS V13.01,2013-02-25 18:05:00,
2013-02-25 13:30:00,42.5,23.7,30.13,North,350,3.0,3.0,47,0.00,,,0.00,VWS V13.01,2013-02-25 18:30:00,
2013-02-25 13:35:00,42.5,23.2,30.16,North,350,3.0,3.0,46,0.00,,,0.00,VWS V13.01,2013-02-25 18:35:00,
2013-02-25 14:00:00,42.3,23.0,30.14,North,350,3.0,3.0,46,0.00,,,0.00,VWS V13.01,2013-02-25 19:00:00,
2013-02-25 14:05:00,42.2,23.4,30.16,North,350,3.0,3.0,47,0.00,,,0.00,VWS V13.01,2013-02-25 19:05:00,
2013-02-25 14:30:00,41.9,24.1,30.12,North,350,3.0,3.0,49,0.00,,,0.00,VWS V13.01,2013-02-25 19:30:00,
2013-02-25 14:35:00,42.5,23.7,30.13,North,350,3.0,3.0,47,0.00,,,0.00,VWS V13.01,2013-02-25 19:35:00,
2013-02-25 15:00:00,41.9,24.1,30.13,North,350,3.0,3.0,49,0.00,,,0.00,VWS V13.01,2013-02-25 20:00:00,
2013-02-25 15:05:00,42.3,23.0,30.14,North,350,3.0,3.0,46,0.00,,,0.00,VWS V13.01,2013-02-25 20:05:00,
2013-02-25 15:30:00,41.2,24.0,30.13,North,350,3.0,3.0,50,0.00,,,0.00,VWS V13.01,2013-02-25 20:30:00,
2013-02-25 15:35:00,41.9,24.1,30.12,North,350,3.0,3.0,49,0.00,,,0.00,VWS V13.01,2013-02-25 20:35:00,
2013-02-25 16:00:00,40.6,24.4,30.12,North,350,3.0,3.0,52,0.00,,,0.00,VWS V13.01,2013-02-25 21:00:00,
2013-02-25 16:05:00,41.9,24.1,30.13,North,350,3.0,3.0,49,0.00,,,0.00,VWS V13.01,2013-02-25 21:05:00,
2013-02-25 16:30:00,40.2,24.5,30.12,North,350,3.0,3.0,53,0.00,,,0.00,VWS V13.01,2013-02-25 21:30:00,
2013-02-25 16:35:00,41.2,24.0,30.13,North,350,3.0,3.0,50,0.00,,,0.00,VWS V13.01,2013-02-25 21:35:00,
2013-02-25 17:00:00,39.6,25.2,30.14,North,350,3.0,3.0,56,0.00,,,0.00,VWS V13.01,2013-02-25 22:00:00,
2013-02-25 17:05:00,40.6,24.4,30.12,North,350,3.0,3.0,52,0.00,,,0.00,VWS V13.01,2013-02-25 22:05:00,
2013-02-25 17:30:00,38.3,24.4,30.13,North,350,3.0,3.0,57,0.00,,,0.00,VWS V13.01,2013-02-25 22:30:00,
2013-02-25 17:35:00,40.2,24.5,30.12,North,350,3.0,3.0,53,0.00,,,0.00,VWS V13.01,2013-02-25 22:35:00,
2013-02-25 18:00:00,37.6,25.8,30.14,North,350,3.0,3.0,62,0.00,,,0.00,VWS V13.01,2013-02-25 23:00:00,
2013-02-25 18:05:00,39.6,25.2,30.14,North,350,3.0,3.0,56,0.00,,,0.00,VWS V13.01,2013-02-25 23:05:00,
2013-02-25 18:30:00,36.6,25.2,30.14,North,350,3.0,3.0,63,0.00,,,0.00,VWS V13.01,2013-02-25 23:30:00,
2013-02-25 18:35:00,38.3,24.4,30.13,North,350,3.0,3.0,57,0.00,,,0.00,VWS V13.01,2013-02-25 23:35:00,
2013-02-25 19:00:00,35.8,25.2,30.15,North,350,3.0,3.0,65,0.00,,,0.00,VWS V13.01,2013-02-26 00:00:00,
2013-02-25 19:05:00,37.6,25.8,30.14,North,350,3.0,3.0,62,0.00,,,0.00,VWS V13.01,2013-02-26 00:05:00,
2013-02-25 19:30:00,34.9,25.4,30.15,North,350,3.0,3.0,68,0.00,,,0.00,VWS V13.01,2013-02-26 00:30:00,
2013-02-25 19:35:00,36.6,25.2,30.14,North,350,3.0,3.0,63,0.00,,,0.00,VWS V13.01,2013-02-26 00:35:00,
2013-02-25 20:00:00,34.0,25.9,30.15,North,350,3.0,3.0,72,0.00,,,0.00,VWS V13.01,2013-02-26 01:00:00,
2013-02-25 20:05:00,35.8,25.2,30.15,North,350,3.0,3.0,65,0.00,,,0.00,VWS V13.01,2013-02-26 01:05:00,
2013-02-25 20:30:00,33.4,26.0,30.15,North,350,3.0,3.0,74,0.00,,,0.00,VWS V13.01,2013-02-26 01:30:00,
2013-02-25 20:35:00,34.9,25.4,30.15,North,350,3.0,3.0,68,0.00,,,0.00,VWS V13.01,2013-02-26 01:35:00,
2013-02-25 21:00:00,33.4,26.0,30.14,North,350,3.0,3.0,74,0.00,,,0.00,VWS V13.01,2013-02-26 02:00:00,
2013-02-25 21:05:00,34.0,25.9,30.15,North,350,3.0,3.0,72,0.00,,,0.00,VWS V13.01,2013-02-26 02:05:00,
2013-02-25 21:30:00,34.4,25.0,30.12,North,350,3.0,3.0,68,0.00,,,0.00,VWS V13.01,2013-02-26 02:30:00,
2013-02-25 21:35:00,33.4,26.0,30.15,North,350,3.0,3.0,74,0.00,,,0.00,VWS V13.01,2013-02-26 02:35:00,
2013-02-25 22:00:00,35.6,25.0,30.12,North,350,3.0,3.0,65,0.00,,,0.00,VWS V13.01,2013-02-26 03:00:00,
2013-02-25 22:05:00,33.4,26.0,30.14,North,350,3.0,3.0,74,0.00,,,0.00,VWS V13.01,2013-02-26 03:05:00,
2013-02-25 22:30:00,36.0,26.1,30.12,North,350,3.0,3.0,67,0.00,,,0.00,VWS V13.01,2013-02-26 03:30:00,
2013-02-25 22:35:00,34.4,25.0,30.12,North,350,3.0,3.0,68,0.00,,,0.00,VWS V13.01,2013-02-26 03:35:00,
2013-02-25 23:00:00,36.8,25.0,30.12,North,350,3.0,3.0,62,0.00,,,0.00,VWS V13.01,2013-02-26 04:00:00,
2013-02-25 23:05:00,35.6,25.0,30.12,North,350,3.0,3.0,65,0.00,,,0.00,VWS V13.01,2013-02-26 04:05:00,
2013-02-25 23:30:00,36.9,25.1,30.12,North,350,3.0,3.0,62,0.00,,,0.00,VWS V13.01,2013-02-26 04:30:00,
2013-02-25 23:35:00,36.0,26.1,30.12,North,350,3.0,3.0,67,0.00,,,0.00,VWS V13.01,2013-02-26 04:35:00,